Pagina principale
METAR-TAF:

METAR-TAF

Aeroporti :

Aeroporto di Palermo-Punta Raisi

Palermo, Italia

latitudine: 38-11N, longitudine: 013-06E, altezza: 21 m

Osservazione

Il bollettino è stato emesso 21 minuti fa, alle 14:50 UTC
Vento 4 kt da est/nord-est, variando fra nord-ovest e est/sud-est
Temperature 20°C
Umidità 43%
Pressione 1012 hPa
Visibilità 10 km o più
Poco nuvoloso ad un'altezza di 2500 ft

METAR: LICJ 061450Z 07004KT 310V110 9999 FEW025 20/07 Q1012

Ora: 16:11 (15:11 UTC)

Previsione

Il bollettino è stato emesso 4 ore e 11 minuti fa, alle 11:00 UTC
Previsione valida dal 06 alle 12 UTC al 07 alle 12 UTC
Vento 15 kt da sud
Visibilità 10 km o più
Poco nuvoloso ad un'altezza di 4000 ft
Evoluzione graduale
dal 07 alle 10 UTC al 07 alle 12 UTC
Vento 10 kt da ovest

TAF: LICJ 061100Z 0612/0712 18015KT 9999 FEW040 BECMG 0710/0712 28010KT

Osservazioni e previsioni meteorologiche di più di 4000 aeroporti (messaggi METAR e TAF).

Le stazioni disponibili sono rappresentate dai dischi gialli e rossi sulla carta.

Puntare il mouse per vedere il nome della stazione.

Clicca sopra per visualizzare le osservazioni e previsioni meteorologiche.

Per cambiare la mappa : fare clic sui pulsanti verdi con una croce nera per ingrandire, il pulsante verde con un trattino per diminuire, o sulla freccia verde per le mappe adiacenti.


METAR-TAF: